sensor_id;sensor_type;location;lat;lon;timestamp;pressure;altitude;pressure_sealevel;temperature;humidity
58243;BME280;50118;53.232;8.252;2023-03-15T00:00:21;100631.09;;;-1.15;100.00
58243;BME280;50118;53.232;8.252;2023-03-15T00:02:46;100639.56;;;-1.09;100.00
58243;BME280;50118;53.232;8.252;2023-03-15T00:05:12;100639.41;;;-1.06;100.00
58243;BME280;50118;53.232;8.252;2023-03-15T00:07:37;100630.66;;;-1.05;100.00
58243;BME280;50118;53.232;8.252;2023-03-15T00:10:03;100640.31;;;-1.07;100.00
58243;BME280;50118;53.232;8.252;2023-03-15T00:12:29;100638.50;;;-1.05;100.00
58243;BME280;50118;53.232;8.252;2023-03-15T00:14:54;100647.47;;;-1.11;100.00
58243;BME280;50118;53.232;8.252;2023-03-15T00:17:20;100645.22;;;-1.19;100.00
58243;BME280;50118;53.232;8.252;2023-03-15T00:19:48;100643.66;;;-1.23;100.00
58243;BME280;50118;53.232;8.252;2023-03-15T00:22:13;100658.44;;;-1.22;100.00
58243;BME280;50118;53.232;8.252;2023-03-15T00:24:39;100653.06;;;-1.19;100.00
58243;BME280;50118;53.232;8.252;2023-03-15T00:27:04;100654.75;;;-1.18;100.00
58243;BME280;50118;53.232;8.252;2023-03-15T00:29:30;100658.94;;;-1.14;100.00
58243;BME280;50118;53.232;8.252;2023-03-15T00:31:56;100667.09;;;-1.02;100.00
58243;BME280;50118;53.232;8.252;2023-03-15T00:34:21;100652.09;;;-0.80;100.00
58243;BME280;50118;53.232;8.252;2023-03-15T00:36:50;100659.31;;;-0.67;100.00
58243;BME280;50118;53.232;8.252;2023-03-15T00:39:18;100663.03;;;-0.54;100.00
58243;BME280;50118;53.232;8.252;2023-03-15T00:41:44;100668.81;;;-0.30;100.00
58243;BME280;50118;53.232;8.252;2023-03-15T00:44:10;100683.97;;;-0.19;100.00
58243;BME280;50118;53.232;8.252;2023-03-15T00:46:36;100676.28;;;-0.05;100.00
58243;BME280;50118;53.232;8.252;2023-03-15T00:49:01;100684.81;;;-0.01;100.00
58243;BME280;50118;53.232;8.252;2023-03-15T00:51:27;100687.22;;;0.04;100.00
58243;BME280;50118;53.232;8.252;2023-03-15T00:53:52;100690.81;;;0.01;100.00
58243;BME280;50118;53.232;8.252;2023-03-15T00:56:26;100691.50;;;0.05;100.00
58243;BME280;50118;53.232;8.252;2023-03-15T00:58:51;100693.66;;;0.14;100.00
58243;BME280;50118;53.232;8.252;2023-03-15T01:01:20;100709.31;;;0.15;100.00
58243;BME280;50118;53.232;8.252;2023-03-15T01:03:46;100706.56;;;0.17;100.00
58243;BME280;50118;53.232;8.252;2023-03-15T01:06:17;100720.56;;;0.17;100.00
58243;BME280;50118;53.232;8.252;2023-03-15T01:08:43;100722.00;;;0.23;100.00
58243;BME280;50118;53.232;8.252;2023-03-15T01:11:16;100722.84;;;0.24;100.00
58243;BME280;50118;53.232;8.252;2023-03-15T01:13:41;100723.38;;;0.30;100.00
58243;BME280;50118;53.232;8.252;2023-03-15T01:16:09;100718.13;;;0.30;100.00
58243;BME280;50118;53.232;8.252;2023-03-15T01:18:35;100714.75;;;0.28;100.00
58243;BME280;50118;53.232;8.252;2023-03-15T01:21:02;100735.69;;;0.28;100.00
58243;BME280;50118;53.232;8.252;2023-03-15T01:23:27;100726.31;;;0.24;100.00
58243;BME280;50118;53.232;8.252;2023-03-15T01:25:52;100739.41;;;0.24;100.00
58243;BME280;50118;53.232;8.252;2023-03-15T01:28:18;100737.88;;;0.20;100.00
58243;BME280;50118;53.232;8.252;2023-03-15T01:30:50;100742.81;;;0.26;100.00
58243;BME280;50118;53.232;8.252;2023-03-15T01:33:16;100742.66;;;0.29;100.00
58243;BME280;50118;53.232;8.252;2023-03-15T01:35:41;100746.19;;;0.28;100.00
58243;BME280;50118;53.232;8.252;2023-03-15T01:38:07;100754.97;;;0.27;100.00
58243;BME280;50118;53.232;8.252;2023-03-15T01:40:32;100750.34;;;0.32;100.00
58243;BME280;50118;53.232;8.252;2023-03-15T01:48:16;100756.28;;;0.36;100.00
58243;BME280;50118;53.232;8.252;2023-03-15T01:50:43;100753.66;;;0.36;100.00
58243;BME280;50118;53.232;8.252;2023-03-15T01:53:09;100766.91;;;0.33;100.00
58243;BME280;50118;53.232;8.252;2023-03-15T01:55:35;100768.69;;;0.32;100.00
58243;BME280;50118;53.232;8.252;2023-03-15T01:58:00;100756.34;;;0.34;100.00
58243;BME280;50118;53.232;8.252;2023-03-15T02:00:26;100768.84;;;0.29;100.00
58243;BME280;50118;53.232;8.252;2023-03-15T02:05:53;100775.56;;;0.17;100.00
58243;BME280;50118;53.232;8.252;2023-03-15T02:08:21;100766.41;;;0.09;100.00
58243;BME280;50118;53.232;8.252;2023-03-15T02:10:52;100779.56;;;0.07;100.00
58243;BME280;50118;53.232;8.252;2023-03-15T02:13:20;100779.09;;;-0.01;100.00
58243;BME280;50118;53.232;8.252;2023-03-15T02:15:47;100788.13;;;-0.07;100.00
58243;BME280;50118;53.232;8.252;2023-03-15T02:18:14;100788.25;;;-0.10;100.00
58243;BME280;50118;53.232;8.252;2023-03-15T02:23:55;100783.31;;;-0.16;100.00
58243;BME280;50118;53.232;8.252;2023-03-15T02:26:37;100793.78;;;-0.16;100.00
58243;BME280;50118;53.232;8.252;2023-03-15T02:29:06;100802.59;;;-0.17;100.00
58243;BME280;50118;53.232;8.252;2023-03-15T02:31:32;100810.44;;;-0.17;100.00
58243;BME280;50118;53.232;8.252;2023-03-15T02:34:03;100792.63;;;-0.10;100.00
58243;BME280;50118;53.232;8.252;2023-03-15T02:36:29;100797.19;;;-0.14;100.00
58243;BME280;50118;53.232;8.252;2023-03-15T02:38:58;100807.91;;;-0.18;100.00
58243;BME280;50118;53.232;8.252;2023-03-15T02:41:28;100808.81;;;-0.20;100.00
58243;BME280;50118;53.232;8.252;2023-03-15T02:43:59;100815.88;;;-0.22;100.00
58243;BME280;50118;53.232;8.252;2023-03-15T02:46:25;100818.72;;;-0.26;100.00
58243;BME280;50118;53.232;8.252;2023-03-15T02:48:52;100836.00;;;-0.22;100.00
58243;BME280;50118;53.232;8.252;2023-03-15T02:51:20;100834.16;;;-0.20;100.00
58243;BME280;50118;53.232;8.252;2023-03-15T02:53:47;100839.38;;;-0.20;100.00
58243;BME280;50118;53.232;8.252;2023-03-15T02:56:12;100844.91;;;-0.26;100.00
58243;BME280;50118;53.232;8.252;2023-03-15T02:58:38;100841.78;;;-0.34;100.00
58243;BME280;50118;53.232;8.252;2023-03-15T03:01:04;100843.78;;;-0.40;100.00
58243;BME280;50118;53.232;8.252;2023-03-15T03:03:29;100849.47;;;-0.49;100.00
58243;BME280;50118;53.232;8.252;2023-03-15T03:05:55;100858.22;;;-0.50;100.00
58243;BME280;50118;53.232;8.252;2023-03-15T03:08:20;100870.53;;;-0.52;100.00
58243;BME280;50118;53.232;8.252;2023-03-15T03:10:45;100876.53;;;-0.50;100.00
58243;BME280;50118;53.232;8.252;2023-03-15T03:13:11;100895.63;;;-0.48;100.00
58243;BME280;50118;53.232;8.252;2023-03-15T03:15:36;100892.25;;;-0.50;100.00
58243;BME280;50118;53.232;8.252;2023-03-15T03:18:02;100899.59;;;-0.58;100.00
58243;BME280;50118;53.232;8.252;2023-03-15T03:20:28;100899.88;;;-0.64;100.00
58243;BME280;50118;53.232;8.252;2023-03-15T03:22:53;100897.91;;;-0.59;100.00
58243;BME280;50118;53.232;8.252;2023-03-15T03:25:20;100893.59;;;-0.60;100.00
58243;BME280;50118;53.232;8.252;2023-03-15T03:27:46;100892.31;;;-0.70;100.00
58243;BME280;50118;53.232;8.252;2023-03-15T03:30:12;100899.50;;;-0.76;100.00
58243;BME280;50118;53.232;8.252;2023-03-15T03:32:41;100897.66;;;-0.73;100.00
58243;BME280;50118;53.232;8.252;2023-03-15T03:35:07;100899.63;;;-0.79;100.00
58243;BME280;50118;53.232;8.252;2023-03-15T03:37:32;100902.03;;;-0.93;100.00
58243;BME280;50118;53.232;8.252;2023-03-15T03:40:00;100907.25;;;-0.93;100.00
58243;BME280;50118;53.232;8.252;2023-03-15T03:42:25;100918.25;;;-1.05;100.00
58243;BME280;50118;53.232;8.252;2023-03-15T03:44:51;100926.47;;;-1.15;100.00
58243;BME280;50118;53.232;8.252;2023-03-15T03:47:18;100922.56;;;-1.25;100.00
58243;BME280;50118;53.232;8.252;2023-03-15T03:49:44;100938.38;;;-1.28;100.00
58243;BME280;50118;53.232;8.252;2023-03-15T03:52:09;100945.75;;;-1.38;100.00
58243;BME280;50118;53.232;8.252;2023-03-15T03:54:35;100944.22;;;-1.43;100.00
58243;BME280;50118;53.232;8.252;2023-03-15T03:57:00;100951.28;;;-1.45;100.00
58243;BME280;50118;53.232;8.252;2023-03-15T03:59:25;100953.38;;;-1.54;100.00
58243;BME280;50118;53.232;8.252;2023-03-15T04:01:51;100962.81;;;-1.49;100.00
58243;BME280;50118;53.232;8.252;2023-03-15T04:04:16;100967.22;;;-1.52;100.00
58243;BME280;50118;53.232;8.252;2023-03-15T04:06:42;100975.88;;;-1.49;100.00
58243;BME280;50118;53.232;8.252;2023-03-15T04:09:11;100971.88;;;-1.58;100.00
58243;BME280;50118;53.232;8.252;2023-03-15T04:11:38;100976.09;;;-1.56;100.00
58243;BME280;50118;53.232;8.252;2023-03-15T04:14:03;100980.47;;;-1.56;100.00
58243;BME280;50118;53.232;8.252;2023-03-15T04:16:29;100997.00;;;-1.56;100.00
58243;BME280;50118;53.232;8.252;2023-03-15T04:18:54;100992.00;;;-1.62;100.00
58243;BME280;50118;53.232;8.252;2023-03-15T04:21:22;100995.78;;;-1.69;100.00
58243;BME280;50118;53.232;8.252;2023-03-15T04:23:48;101002.59;;;-1.65;100.00
58243;BME280;50118;53.232;8.252;2023-03-15T04:26:13;101002.44;;;-1.62;100.00
58243;BME280;50118;53.232;8.252;2023-03-15T04:28:39;101006.22;;;-1.69;100.00
58243;BME280;50118;53.232;8.252;2023-03-15T04:31:04;101009.09;;;-1.75;100.00
58243;BME280;50118;53.232;8.252;2023-03-15T04:33:34;101012.56;;;-1.75;100.00
58243;BME280;50118;53.232;8.252;2023-03-15T04:36:00;101022.00;;;-1.72;100.00
58243;BME280;50118;53.232;8.252;2023-03-15T04:38:27;101022.78;;;-1.68;100.00
58243;BME280;50118;53.232;8.252;2023-03-15T04:40:53;101023.63;;;-1.68;100.00
58243;BME280;50118;53.232;8.252;2023-03-15T04:43:19;101021.13;;;-1.71;100.00
58243;BME280;50118;53.232;8.252;2023-03-15T04:45:45;101028.84;;;-1.68;100.00
58243;BME280;50118;53.232;8.252;2023-03-15T04:48:10;101020.31;;;-1.73;100.00
58243;BME280;50118;53.232;8.252;2023-03-15T04:50:35;101023.94;;;-1.77;100.00
58243;BME280;50118;53.232;8.252;2023-03-15T04:53:01;101029.44;;;-1.83;100.00
58243;BME280;50118;53.232;8.252;2023-03-15T04:55:26;101038.16;;;-1.84;100.00
58243;BME280;50118;53.232;8.252;2023-03-15T04:57:52;101025.34;;;-1.91;100.00
58243;BME280;50118;53.232;8.252;2023-03-15T05:00:18;101036.81;;;-1.95;100.00
58243;BME280;50118;53.232;8.252;2023-03-15T05:02:43;101043.06;;;-1.99;100.00
58243;BME280;50118;53.232;8.252;2023-03-15T05:05:11;101033.63;;;-2.03;100.00
58243;BME280;50118;53.232;8.252;2023-03-15T05:07:37;101046.00;;;-2.08;100.00
58243;BME280;50118;53.232;8.252;2023-03-15T05:10:04;101048.63;;;-2.08;100.00
58243;BME280;50118;53.232;8.252;2023-03-15T05:12:30;101049.53;;;-2.09;100.00
58243;BME280;50118;53.232;8.252;2023-03-15T05:14:56;101047.81;;;-2.10;100.00
58243;BME280;50118;53.232;8.252;2023-03-15T05:17:21;101062.69;;;-2.12;100.00
58243;BME280;50118;53.232;8.252;2023-03-15T05:19:48;101061.91;;;-2.14;100.00
58243;BME280;50118;53.232;8.252;2023-03-15T05:22:14;101059.16;;;-2.11;100.00
58243;BME280;50118;53.232;8.252;2023-03-15T05:24:39;101071.47;;;-2.15;100.00
58243;BME280;50118;53.232;8.252;2023-03-15T05:27:04;101079.34;;;-2.16;100.00
58243;BME280;50118;53.232;8.252;2023-03-15T05:29:30;101081.97;;;-2.16;100.00
58243;BME280;50118;53.232;8.252;2023-03-15T05:31:55;101075.84;;;-2.15;100.00
58243;BME280;50118;53.232;8.252;2023-03-15T05:34:20;101083.63;;;-2.14;100.00
58243;BME280;50118;53.232;8.252;2023-03-15T05:36:49;101080.88;;;-2.09;100.00
58243;BME280;50118;53.232;8.252;2023-03-15T05:39:16;101096.38;;;-2.06;100.00
58243;BME280;50118;53.232;8.252;2023-03-15T05:41:41;101096.22;;;-2.01;100.00
58243;BME280;50118;53.232;8.252;2023-03-15T05:44:07;101103.22;;;-2.02;100.00
58243;BME280;50118;53.232;8.252;2023-03-15T05:46:32;101110.94;;;-1.99;100.00
58243;BME280;50118;53.232;8.252;2023-03-15T05:48:58;101116.16;;;-1.99;100.00
58243;BME280;50118;53.232;8.252;2023-03-15T05:51:23;101118.78;;;-1.99;100.00
58243;BME280;50118;53.232;8.252;2023-03-15T05:53:49;101135.19;;;-1.95;100.00
58243;BME280;50118;53.232;8.252;2023-03-15T05:56:14;101132.41;;;-1.91;100.00
58243;BME280;50118;53.232;8.252;2023-03-15T05:58:40;101126.09;;;-1.85;100.00
58243;BME280;50118;53.232;8.252;2023-03-15T06:01:05;101145.22;;;-1.84;100.00
58243;BME280;50118;53.232;8.252;2023-03-15T06:03:31;101136.16;;;-1.74;100.00
58243;BME280;50118;53.232;8.252;2023-03-15T06:05:57;101144.84;;;-1.74;100.00
58243;BME280;50118;53.232;8.252;2023-03-15T06:08:23;101145.69;;;-1.73;100.00
58243;BME280;50118;53.232;8.252;2023-03-15T06:10:49;101146.34;;;-1.66;100.00
58243;BME280;50118;53.232;8.252;2023-03-15T06:13:15;101153.06;;;-1.61;100.00
58243;BME280;50118;53.232;8.252;2023-03-15T06:15:40;101148.53;;;-1.56;100.00
58243;BME280;50118;53.232;8.252;2023-03-15T06:18:06;101146.69;;;-1.54;100.00
58243;BME280;50118;53.232;8.252;2023-03-15T06:20:32;101155.22;;;-1.48;100.00
58243;BME280;50118;53.232;8.252;2023-03-15T06:22:58;101162.94;;;-1.45;100.00
58243;BME280;50118;53.232;8.252;2023-03-15T06:25:23;101163.53;;;-1.37;100.00
58243;BME280;50118;53.232;8.252;2023-03-15T06:27:49;101166.59;;;-1.26;100.00
58243;BME280;50118;53.232;8.252;2023-03-15T06:30:15;101176.78;;;-1.20;100.00
58243;BME280;50118;53.232;8.252;2023-03-15T06:32:40;101181.78;;;-1.14;100.00
58243;BME280;50118;53.232;8.252;2023-03-15T06:35:06;101185.41;;;-1.18;100.00
58243;BME280;50118;53.232;8.252;2023-03-15T06:37:32;101190.31;;;-1.08;100.00
58243;BME280;50118;53.232;8.252;2023-03-15T06:40:00;101196.88;;;-0.98;100.00
58243;BME280;50118;53.232;8.252;2023-03-15T06:42:25;101200.16;;;-0.93;100.00
58243;BME280;50118;53.232;8.252;2023-03-15T06:44:50;101204.31;;;-0.87;100.00
58243;BME280;50118;53.232;8.252;2023-03-15T06:47:16;101210.88;;;-0.77;100.00
58243;BME280;50118;53.232;8.252;2023-03-15T06:49:41;101212.75;;;-0.59;100.00
58243;BME280;50118;53.232;8.252;2023-03-15T06:52:07;101224.59;;;-0.50;100.00
58243;BME280;50118;53.232;8.252;2023-03-15T06:54:33;101217.66;;;-0.08;100.00
58243;BME280;50118;53.232;8.252;2023-03-15T06:56:58;101229.84;;;0.13;100.00
58243;BME280;50118;53.232;8.252;2023-03-15T06:59:24;101236.66;;;0.57;100.00
58243;BME280;50118;53.232;8.252;2023-03-15T07:01:50;101237.94;;;1.05;100.00
58243;BME280;50118;53.232;8.252;2023-03-15T07:04:15;101236.13;;;1.98;100.00
58243;BME280;50118;53.232;8.252;2023-03-15T07:06:41;101239.81;;;2.11;100.00
58243;BME280;50118;53.232;8.252;2023-03-15T07:09:06;101243.63;;;2.72;100.00
58243;BME280;50118;53.232;8.252;2023-03-15T07:11:32;101251.66;;;3.03;100.00
58243;BME280;50118;53.232;8.252;2023-03-15T07:13:57;101247.06;;;3.06;100.00
58243;BME280;50118;53.232;8.252;2023-03-15T07:16:24;101253.44;;;3.02;100.00
58243;BME280;50118;53.232;8.252;2023-03-15T07:18:50;101250.59;;;2.73;100.00
58243;BME280;50118;53.232;8.252;2023-03-15T07:21:15;101266.34;;;2.57;100.00
58243;BME280;50118;53.232;8.252;2023-03-15T07:23:41;101271.13;;;2.67;100.00
58243;BME280;50118;53.232;8.252;2023-03-15T07:26:07;101275.31;;;2.71;100.00
58243;BME280;50118;53.232;8.252;2023-03-15T07:28:32;101270.59;;;3.09;100.00
58243;BME280;50118;53.232;8.252;2023-03-15T07:31:03;101280.34;;;3.55;100.00
58243;BME280;50118;53.232;8.252;2023-03-15T07:33:30;101284.75;;;3.70;99.02
58243;BME280;50118;53.232;8.252;2023-03-15T07:35:56;101284.13;;;4.11;97.31
58243;BME280;50118;53.232;8.252;2023-03-15T07:38:23;101279.59;;;3.99;94.40
58243;BME280;50118;53.232;8.252;2023-03-15T07:40:49;101279.13;;;4.52;91.87
58243;BME280;50118;53.232;8.252;2023-03-15T07:43:15;101276.88;;;5.03;90.18
58243;BME280;50118;53.232;8.252;2023-03-15T07:45:41;101276.25;;;5.27;86.51
58243;BME280;50118;53.232;8.252;2023-03-15T07:48:09;101284.16;;;5.41;85.13
58243;BME280;50118;53.232;8.252;2023-03-15T07:50:38;101292.84;;;5.29;82.67
58243;BME280;50118;53.232;8.252;2023-03-15T07:53:04;101280.66;;;5.95;81.66
58243;BME280;50118;53.232;8.252;2023-03-15T07:55:31;101284.78;;;5.72;77.96
58243;BME280;50118;53.232;8.252;2023-03-15T07:57:57;101296.22;;;6.78;73.73
58243;BME280;50118;53.232;8.252;2023-03-15T08:00:22;101288.94;;;7.19;74.00
58243;BME280;50118;53.232;8.252;2023-03-15T08:02:48;101292.41;;;6.69;76.97
58243;BME280;50118;53.232;8.252;2023-03-15T08:05:14;101295.06;;;6.69;74.58
58243;BME280;50118;53.232;8.252;2023-03-15T08:07:39;101299.75;;;7.16;73.50
58243;BME280;50118;53.232;8.252;2023-03-15T08:10:05;101312.06;;;6.91;75.33
58243;BME280;50118;53.232;8.252;2023-03-15T08:12:31;101313.84;;;7.16;74.04
58243;BME280;50118;53.232;8.252;2023-03-15T08:14:57;101319.59;;;6.59;72.49
58243;BME280;50118;53.232;8.252;2023-03-15T08:17:23;101318.53;;;6.74;74.59
58243;BME280;50118;53.232;8.252;2023-03-15T08:19:48;101325.44;;;6.77;70.75
58243;BME280;50118;53.232;8.252;2023-03-15T08:22:13;101316.84;;;6.34;73.03
58243;BME280;50118;53.232;8.252;2023-03-15T08:24:39;101332.63;;;6.49;74.66
58243;BME280;50118;53.232;8.252;2023-03-15T08:27:04;101337.59;;;6.41;72.82
58243;BME280;50118;53.232;8.252;2023-03-15T08:29:30;101336.59;;;6.16;77.97
58243;BME280;50118;53.232;8.252;2023-03-15T08:31:56;101343.22;;;6.87;77.69
58243;BME280;50118;53.232;8.252;2023-03-15T08:34:24;101343.75;;;6.92;75.74
58243;BME280;50118;53.232;8.252;2023-03-15T08:36:50;101343.97;;;6.89;76.65
58243;BME280;50118;53.232;8.252;2023-03-15T08:39:15;101350.00;;;6.79;75.64
58243;BME280;50118;53.232;8.252;2023-03-15T08:41:41;101362.28;;;6.14;75.31
58243;BME280;50118;53.232;8.252;2023-03-15T08:44:08;101365.13;;;6.11;77.78
58243;BME280;50118;53.232;8.252;2023-03-15T08:46:34;101370.19;;;6.28;75.13
58243;BME280;50118;53.232;8.252;2023-03-15T08:49:01;101378.50;;;6.22;75.50
58243;BME280;50118;53.232;8.252;2023-03-15T08:51:26;101379.50;;;6.34;79.28
58243;BME280;50118;53.232;8.252;2023-03-15T08:53:53;101383.47;;;6.54;77.10
58243;BME280;50118;53.232;8.252;2023-03-15T08:56:18;101385.91;;;5.75;79.68
58243;BME280;50118;53.232;8.252;2023-03-15T08:58:44;101377.09;;;5.89;80.44
58243;BME280;50118;53.232;8.252;2023-03-15T09:01:13;101387.09;;;6.26;79.95
58243;BME280;50118;53.232;8.252;2023-03-15T09:03:38;101388.09;;;6.10;76.81
58243;BME280;50118;53.232;8.252;2023-03-15T09:06:04;101388.06;;;6.78;77.84
58243;BME280;50118;53.232;8.252;2023-03-15T09:08:30;101396.00;;;7.03;77.43
58243;BME280;50118;53.232;8.252;2023-03-15T09:10:58;101395.25;;;6.88;71.79
58243;BME280;50118;53.232;8.252;2023-03-15T09:13:26;101392.28;;;6.93;72.61
58243;BME280;50118;53.232;8.252;2023-03-15T09:15:52;101385.19;;;6.94;69.79
58243;BME280;50118;53.232;8.252;2023-03-15T09:18:19;101399.16;;;7.34;71.38
58243;BME280;50118;53.232;8.252;2023-03-15T09:20:45;101405.09;;;7.38;68.38
58243;BME280;50118;53.232;8.252;2023-03-15T09:23:11;101400.41;;;7.41;69.30
58243;BME280;50118;53.232;8.252;2023-03-15T09:25:37;101405.75;;;6.90;63.17
58243;BME280;50118;53.232;8.252;2023-03-15T09:28:03;101405.75;;;7.16;65.02
58243;BME280;50118;53.232;8.252;2023-03-15T09:30:29;101418.63;;;7.59;67.45
58243;BME280;50118;53.232;8.252;2023-03-15T09:32:55;101428.78;;;7.65;66.11
58243;BME280;50118;53.232;8.252;2023-03-15T09:35:20;101458.44;;;6.67;69.90
58243;BME280;50118;53.232;8.252;2023-03-15T09:37:47;101505.44;;;3.83;89.87
58243;BME280;50118;53.232;8.252;2023-03-15T09:40:35;101530.47;;;1.77;100.00
58243;BME280;50118;53.232;8.252;2023-03-15T09:48:12;101558.88;;;-0.05;100.00
58243;BME280;50118;53.232;8.252;2023-03-15T09:50:47;101564.00;;;-0.25;100.00
58243;BME280;50118;53.232;8.252;2023-03-15T09:53:27;101580.50;;;-0.48;100.00
58243;BME280;50118;53.232;8.252;2023-03-15T09:55:54;101569.72;;;-0.64;100.00
58243;BME280;50118;53.232;8.252;2023-03-15T09:58:28;101576.09;;;-0.71;100.00
58243;BME280;50118;53.232;8.252;2023-03-15T10:01:05;101567.53;;;-0.77;100.00
58243;BME280;50118;53.232;8.252;2023-03-15T10:03:52;101564.22;;;-0.82;100.00
58243;BME280;50118;53.232;8.252;2023-03-15T10:06:20;101570.72;;;-0.68;100.00
58243;BME280;50118;53.232;8.252;2023-03-15T10:08:55;101560.06;;;-0.62;100.00
58243;BME280;50118;53.232;8.252;2023-03-15T10:16:42;101537.00;;;-0.04;100.00
58243;BME280;50118;53.232;8.252;2023-03-15T10:19:50;101537.91;;;0.19;100.00
58243;BME280;50118;53.232;8.252;2023-03-15T10:22:27;101535.81;;;0.27;100.00
58243;BME280;50118;53.232;8.252;2023-03-15T10:25:00;101532.78;;;0.16;100.00
58243;BME280;50118;53.232;8.252;2023-03-15T10:27:42;101522.28;;;0.40;100.00
58243;BME280;50118;53.232;8.252;2023-03-15T10:30:17;101510.06;;;0.61;100.00
58243;BME280;50118;53.232;8.252;2023-03-15T10:32:44;101513.50;;;0.83;100.00
58243;BME280;50118;53.232;8.252;2023-03-15T10:35:17;101500.88;;;1.14;100.00
58243;BME280;50118;53.232;8.252;2023-03-15T10:37:44;101505.84;;;1.20;100.00
58243;BME280;50118;53.232;8.252;2023-03-15T10:40:11;101521.06;;;1.32;100.00
58243;BME280;50118;53.232;8.252;2023-03-15T10:42:45;101531.22;;;1.60;100.00
58243;BME280;50118;53.232;8.252;2023-03-15T10:45:23;101531.66;;;1.70;100.00
58243;BME280;50118;53.232;8.252;2023-03-15T10:47:49;101542.81;;;1.75;100.00
58243;BME280;50118;53.232;8.252;2023-03-15T10:50:27;101556.22;;;1.69;100.00
58243;BME280;50118;53.232;8.252;2023-03-15T10:52:55;101562.41;;;1.27;100.00
58243;BME280;50118;53.232;8.252;2023-03-15T10:55:31;101582.28;;;1.74;100.00
58243;BME280;50118;53.232;8.252;2023-03-15T10:58:18;101599.56;;;1.79;100.00
58243;BME280;50118;53.232;8.252;2023-03-15T11:00:53;101618.88;;;1.97;100.00
58243;BME280;50118;53.232;8.252;2023-03-15T11:03:23;101609.72;;;1.87;100.00
58243;BME280;50118;53.232;8.252;2023-03-15T11:05:55;101616.41;;;1.74;100.00
58243;BME280;50118;53.232;8.252;2023-03-15T11:08:35;101632.66;;;1.42;100.00
58243;BME280;50118;53.232;8.252;2023-03-15T11:11:02;101636.13;;;1.43;100.00
58243;BME280;50118;53.232;8.252;2023-03-15T11:13:32;101639.16;;;1.11;100.00
58243;BME280;50118;53.232;8.252;2023-03-15T11:21:14;101611.06;;;0.47;100.00
58243;BME280;50118;53.232;8.252;2023-03-15T11:23:46;101602.81;;;0.58;100.00
58243;BME280;50118;53.232;8.252;2023-03-15T11:26:19;101595.84;;;0.57;100.00
58243;BME280;50118;53.232;8.252;2023-03-15T11:28:51;101612.56;;;0.77;100.00
58243;BME280;50118;53.232;8.252;2023-03-15T11:31:25;101622.31;;;0.95;100.00
58243;BME280;50118;53.232;8.252;2023-03-15T11:34:03;101622.16;;;1.42;100.00
58243;BME280;50118;53.232;8.252;2023-03-15T11:36:32;101622.78;;;1.89;100.00
58243;BME280;50118;53.232;8.252;2023-03-15T11:39:01;101623.78;;;2.26;100.00
58243;BME280;50118;53.232;8.252;2023-03-15T11:41:58;101630.00;;;2.80;100.00
58243;BME280;50118;53.232;8.252;2023-03-15T11:44:38;101631.31;;;2.71;100.00
58243;BME280;50118;53.232;8.252;2023-03-15T11:49:50;101630.63;;;3.22;100.00
58243;BME280;50118;53.232;8.252;2023-03-15T11:52:20;101637.66;;;3.04;100.00
58243;BME280;50118;53.232;8.252;2023-03-15T11:54:46;101648.13;;;3.23;100.00
58243;BME280;50118;53.232;8.252;2023-03-15T11:59:52;101648.94;;;2.88;100.00
58243;BME280;50118;53.232;8.252;2023-03-15T12:04:45;101647.22;;;2.68;100.00
58243;BME280;50118;53.232;8.252;2023-03-15T12:09:46;101645.41;;;3.07;100.00
58243;BME280;50118;53.232;8.252;2023-03-15T12:12:33;101640.41;;;2.83;100.00
58243;BME280;50118;53.232;8.252;2023-03-15T12:17:57;101624.47;;;2.67;100.00
58243;BME280;50118;53.232;8.252;2023-03-15T12:20:39;101620.00;;;2.69;100.00
58243;BME280;50118;53.232;8.252;2023-03-15T12:23:18;101614.69;;;2.71;100.00
58243;BME280;50118;53.232;8.252;2023-03-15T12:26:31;101611.47;;;3.01;100.00
58243;BME280;50118;53.232;8.252;2023-03-15T12:29:04;101606.56;;;3.29;100.00
58243;BME280;50118;53.232;8.252;2023-03-15T12:31:55;101608.28;;;3.30;100.00
58243;BME280;50118;53.232;8.252;2023-03-15T12:34:26;101596.22;;;3.77;100.00
58243;BME280;50118;53.232;8.252;2023-03-15T12:36:55;101607.69;;;4.09;100.00
58243;BME280;50118;53.232;8.252;2023-03-15T12:39:40;101605.06;;;4.25;100.00
58243;BME280;50118;53.232;8.252;2023-03-15T12:42:14;101595.56;;;4.23;100.00
58243;BME280;50118;53.232;8.252;2023-03-15T12:55:39;101591.13;;;4.71;100.00
58243;BME280;50118;53.232;8.252;2023-03-15T12:58:10;101585.94;;;4.85;100.00
58243;BME280;50118;53.232;8.252;2023-03-15T13:00:38;101579.47;;;4.75;100.00
58243;BME280;50118;53.232;8.252;2023-03-15T13:03:11;101586.44;;;4.76;100.00
58243;BME280;50118;53.232;8.252;2023-03-15T13:08:43;101588.50;;;4.71;100.00
58243;BME280;50118;53.232;8.252;2023-03-15T13:14:17;101588.56;;;4.22;100.00
58243;BME280;50118;53.232;8.252;2023-03-15T13:16:53;101593.06;;;4.20;100.00
58243;BME280;50118;53.232;8.252;2023-03-15T13:19:30;101591.41;;;4.51;100.00
58243;BME280;50118;53.232;8.252;2023-03-15T13:24:57;101592.34;;;4.49;100.00
58243;BME280;50118;53.232;8.252;2023-03-15T13:30:38;101582.03;;;4.77;100.00
58243;BME280;50118;53.232;8.252;2023-03-15T13:33:09;101585.53;;;4.77;100.00
58243;BME280;50118;53.232;8.252;2023-03-15T13:35:47;101594.78;;;4.84;100.00
58243;BME280;50118;53.232;8.252;2023-03-15T13:41:00;101587.13;;;4.96;100.00
58243;BME280;50118;53.232;8.252;2023-03-15T13:43:38;101596.66;;;4.82;100.00
58243;BME280;50118;53.232;8.252;2023-03-15T13:46:04;101602.41;;;5.05;100.00
58243;BME280;50118;53.232;8.252;2023-03-15T13:48:32;101600.22;;;4.97;100.00
58243;BME280;50118;53.232;8.252;2023-03-15T13:51:06;101590.50;;;4.98;100.00
58243;BME280;50118;53.232;8.252;2023-03-15T13:53:34;101598.88;;;4.74;100.00
58243;BME280;50118;53.232;8.252;2023-03-15T13:56:01;101599.13;;;4.85;100.00
58243;BME280;50118;53.232;8.252;2023-03-15T13:58:30;101602.25;;;5.08;100.00